sensor_id;sensor_type;location;lat;lon;timestamp;temperature;humidity
2749;DHT22;1382;52.142;11.618;2023-02-26T00:01:18;3.90;54.90
2749;DHT22;1382;52.142;11.618;2023-02-26T00:03:48;3.90;54.90
2749;DHT22;1382;52.142;11.618;2023-02-26T00:06:15;3.80;55.00
2749;DHT22;1382;52.142;11.618;2023-02-26T00:08:42;3.90;55.30
2749;DHT22;1382;52.142;11.618;2023-02-26T00:11:09;3.90;55.30
2749;DHT22;1382;52.142;11.618;2023-02-26T00:13:38;3.80;55.40
2749;DHT22;1382;52.142;11.618;2023-02-26T00:16:12;3.80;55.40
2749;DHT22;1382;52.142;11.618;2023-02-26T00:18:46;3.80;55.60
2749;DHT22;1382;52.142;11.618;2023-02-26T00:21:15;3.80;55.80
2749;DHT22;1382;52.142;11.618;2023-02-26T00:23:42;3.80;55.80
2749;DHT22;1382;52.142;11.618;2023-02-26T00:26:09;3.80;55.80
2749;DHT22;1382;52.142;11.618;2023-02-26T00:28:37;3.80;55.70
2749;DHT22;1382;52.142;11.618;2023-02-26T00:31:04;3.80;55.80
2749;DHT22;1382;52.142;11.618;2023-02-26T00:33:32;3.80;55.70
2749;DHT22;1382;52.142;11.618;2023-02-26T00:36:17;3.80;55.70
2749;DHT22;1382;52.142;11.618;2023-02-26T00:38:56;3.80;55.70
2749;DHT22;1382;52.142;11.618;2023-02-26T00:41:28;3.70;55.80
2749;DHT22;1382;52.142;11.618;2023-02-26T00:43:55;3.70;56.00
2749;DHT22;1382;52.142;11.618;2023-02-26T00:46:30;3.70;56.10
2749;DHT22;1382;52.142;11.618;2023-02-26T00:49:02;3.70;56.10
2749;DHT22;1382;52.142;11.618;2023-02-26T00:51:39;3.80;56.20
2749;DHT22;1382;52.142;11.618;2023-02-26T00:54:12;3.60;56.10
2749;DHT22;1382;52.142;11.618;2023-02-26T00:56:45;3.60;56.10
2749;DHT22;1382;52.142;11.618;2023-02-26T00:59:11;3.80;56.20
2749;DHT22;1382;52.142;11.618;2023-02-26T01:01:38;3.60;56.10
2749;DHT22;1382;52.142;11.618;2023-02-26T01:04:06;3.60;56.20
2749;DHT22;1382;52.142;11.618;2023-02-26T01:06:37;3.60;56.20
2749;DHT22;1382;52.142;11.618;2023-02-26T01:09:09;3.60;56.20
2749;DHT22;1382;52.142;11.618;2023-02-26T01:11:38;3.60;56.30
2749;DHT22;1382;52.142;11.618;2023-02-26T01:14:06;3.70;56.40
2749;DHT22;1382;52.142;11.618;2023-02-26T01:16:37;3.60;56.20
2749;DHT22;1382;52.142;11.618;2023-02-26T01:19:12;3.60;56.20
2749;DHT22;1382;52.142;11.618;2023-02-26T01:21:48;3.50;56.20
2749;DHT22;1382;52.142;11.618;2023-02-26T01:24:18;3.60;56.30
2749;DHT22;1382;52.142;11.618;2023-02-26T01:26:46;3.60;56.20
2749;DHT22;1382;52.142;11.618;2023-02-26T01:29:13;3.60;56.30
2749;DHT22;1382;52.142;11.618;2023-02-26T01:31:45;3.60;56.10
2749;DHT22;1382;52.142;11.618;2023-02-26T01:34:17;3.60;56.00
2749;DHT22;1382;52.142;11.618;2023-02-26T01:36:52;3.60;56.10
2749;DHT22;1382;52.142;11.618;2023-02-26T01:39:27;3.60;56.10
2749;DHT22;1382;52.142;11.618;2023-02-26T01:41:57;3.70;56.20
2749;DHT22;1382;52.142;11.618;2023-02-26T01:44:29;3.60;56.10
2749;DHT22;1382;52.142;11.618;2023-02-26T01:47:15;3.60;56.10
2749;DHT22;1382;52.142;11.618;2023-02-26T01:49:44;3.70;56.10
2749;DHT22;1382;52.142;11.618;2023-02-26T01:55:19;3.80;56.00
2749;DHT22;1382;52.142;11.618;2023-02-26T01:57:47;3.70;56.10
2749;DHT22;1382;52.142;11.618;2023-02-26T02:00:15;3.60;56.10
2749;DHT22;1382;52.142;11.618;2023-02-26T02:02:42;3.60;56.10
2749;DHT22;1382;52.142;11.618;2023-02-26T02:05:12;3.60;56.10
2749;DHT22;1382;52.142;11.618;2023-02-26T02:07:40;3.70;56.10
2749;DHT22;1382;52.142;11.618;2023-02-26T02:10:08;3.70;56.10
2749;DHT22;1382;52.142;11.618;2023-02-26T02:12:40;3.70;55.80
2749;DHT22;1382;52.142;11.618;2023-02-26T02:15:12;3.70;55.90
2749;DHT22;1382;52.142;11.618;2023-02-26T02:17:47;3.70;55.80
2749;DHT22;1382;52.142;11.618;2023-02-26T02:23:17;3.70;55.60
2749;DHT22;1382;52.142;11.618;2023-02-26T02:26:09;3.70;55.70
2749;DHT22;1382;52.142;11.618;2023-02-26T02:28:53;3.80;55.70
2749;DHT22;1382;52.142;11.618;2023-02-26T02:31:26;3.70;55.50
2749;DHT22;1382;52.142;11.618;2023-02-26T02:33:59;3.70;55.60
2749;DHT22;1382;52.142;11.618;2023-02-26T02:36:34;3.70;55.60
2749;DHT22;1382;52.142;11.618;2023-02-26T02:39:05;3.70;55.60
2749;DHT22;1382;52.142;11.618;2023-02-26T02:41:36;3.60;55.50
2749;DHT22;1382;52.142;11.618;2023-02-26T02:44:09;3.60;55.60
2749;DHT22;1382;52.142;11.618;2023-02-26T02:46:41;3.60;55.60
2749;DHT22;1382;52.142;11.618;2023-02-26T02:49:11;3.60;55.60
2749;DHT22;1382;52.142;11.618;2023-02-26T02:51:43;3.60;55.60
2749;DHT22;1382;52.142;11.618;2023-02-26T02:54:15;3.60;55.70
2749;DHT22;1382;52.142;11.618;2023-02-26T02:56:46;3.60;55.70
2749;DHT22;1382;52.142;11.618;2023-02-26T02:59:17;3.50;55.60
2749;DHT22;1382;52.142;11.618;2023-02-26T03:01:50;3.60;55.80
2749;DHT22;1382;52.142;11.618;2023-02-26T03:04:18;3.40;55.60
2749;DHT22;1382;52.142;11.618;2023-02-26T03:06:45;3.50;55.70
2749;DHT22;1382;52.142;11.618;2023-02-26T03:09:12;3.50;55.80
2749;DHT22;1382;52.142;11.618;2023-02-26T03:11:39;3.50;55.70
2749;DHT22;1382;52.142;11.618;2023-02-26T03:14:06;3.50;55.70
2749;DHT22;1382;52.142;11.618;2023-02-26T03:17:01;3.50;55.70
2749;DHT22;1382;52.142;11.618;2023-02-26T03:19:34;3.50;55.60
2749;DHT22;1382;52.142;11.618;2023-02-26T03:22:07;3.50;55.70
2749;DHT22;1382;52.142;11.618;2023-02-26T03:24:37;3.50;55.70
2749;DHT22;1382;52.142;11.618;2023-02-26T03:27:10;3.50;55.70
2749;DHT22;1382;52.142;11.618;2023-02-26T03:29:45;3.50;55.80
2749;DHT22;1382;52.142;11.618;2023-02-26T03:32:16;3.50;55.80
2749;DHT22;1382;52.142;11.618;2023-02-26T03:34:47;3.50;55.80
2749;DHT22;1382;52.142;11.618;2023-02-26T03:37:19;3.50;55.80
2749;DHT22;1382;52.142;11.618;2023-02-26T03:39:50;3.40;55.80
2749;DHT22;1382;52.142;11.618;2023-02-26T03:42:21;3.40;55.80
2749;DHT22;1382;52.142;11.618;2023-02-26T03:44:52;3.50;55.80
2749;DHT22;1382;52.142;11.618;2023-02-26T03:47:21;3.50;55.80
2749;DHT22;1382;52.142;11.618;2023-02-26T03:49:51;3.50;55.70
2749;DHT22;1382;52.142;11.618;2023-02-26T03:52:19;3.50;55.70
2749;DHT22;1382;52.142;11.618;2023-02-26T03:54:50;3.50;55.70
2749;DHT22;1382;52.142;11.618;2023-02-26T03:57:19;3.50;55.60
2749;DHT22;1382;52.142;11.618;2023-02-26T03:59:46;3.50;55.70
2749;DHT22;1382;52.142;11.618;2023-02-26T04:02:16;3.50;55.70
2749;DHT22;1382;52.142;11.618;2023-02-26T04:04:48;3.50;55.60
2749;DHT22;1382;52.142;11.618;2023-02-26T04:07:17;3.50;55.60
2749;DHT22;1382;52.142;11.618;2023-02-26T04:09:46;3.50;55.60
2749;DHT22;1382;52.142;11.618;2023-02-26T04:12:14;3.50;55.60
2749;DHT22;1382;52.142;11.618;2023-02-26T04:14:41;3.50;55.70
2749;DHT22;1382;52.142;11.618;2023-02-26T04:17:08;3.50;55.70
2749;DHT22;1382;52.142;11.618;2023-02-26T04:19:34;3.50;55.70
2749;DHT22;1382;52.142;11.618;2023-02-26T04:22:02;3.50;55.70
2749;DHT22;1382;52.142;11.618;2023-02-26T04:24:29;3.50;55.60
2749;DHT22;1382;52.142;11.618;2023-02-26T04:26:56;3.50;55.80
2749;DHT22;1382;52.142;11.618;2023-02-26T04:29:22;3.50;55.80
2749;DHT22;1382;52.142;11.618;2023-02-26T04:31:49;3.40;55.70
2749;DHT22;1382;52.142;11.618;2023-02-26T04:34:16;3.40;55.70
2749;DHT22;1382;52.142;11.618;2023-02-26T04:36:43;3.50;55.90
2749;DHT22;1382;52.142;11.618;2023-02-26T04:39:11;3.40;55.80
2749;DHT22;1382;52.142;11.618;2023-02-26T04:41:38;3.40;55.80
2749;DHT22;1382;52.142;11.618;2023-02-26T04:44:05;3.40;55.80
2749;DHT22;1382;52.142;11.618;2023-02-26T04:46:32;3.40;55.80
2749;DHT22;1382;52.142;11.618;2023-02-26T04:48:59;3.40;55.70
2749;DHT22;1382;52.142;11.618;2023-02-26T04:51:25;3.40;55.70
2749;DHT22;1382;52.142;11.618;2023-02-26T04:53:52;3.50;55.80
2749;DHT22;1382;52.142;11.618;2023-02-26T04:56:20;3.40;55.70
2749;DHT22;1382;52.142;11.618;2023-02-26T04:58:47;3.40;55.60
2749;DHT22;1382;52.142;11.618;2023-02-26T05:01:14;3.50;55.80
2749;DHT22;1382;52.142;11.618;2023-02-26T05:03:41;3.40;55.70
2749;DHT22;1382;52.142;11.618;2023-02-26T05:06:08;3.40;55.70
2749;DHT22;1382;52.142;11.618;2023-02-26T05:08:34;3.40;55.70
2749;DHT22;1382;52.142;11.618;2023-02-26T05:11:01;3.40;55.70
2749;DHT22;1382;52.142;11.618;2023-02-26T05:13:29;3.40;55.70
2749;DHT22;1382;52.142;11.618;2023-02-26T05:15:56;3.50;55.70
2749;DHT22;1382;52.142;11.618;2023-02-26T05:18:23;3.50;55.60
2749;DHT22;1382;52.142;11.618;2023-02-26T05:20:51;3.50;55.60
2749;DHT22;1382;52.142;11.618;2023-02-26T05:23:19;3.50;55.40
2749;DHT22;1382;52.142;11.618;2023-02-26T05:25:45;3.50;55.40
2749;DHT22;1382;52.142;11.618;2023-02-26T05:28:12;3.50;55.40
2749;DHT22;1382;52.142;11.618;2023-02-26T05:30:40;3.50;55.40
2749;DHT22;1382;52.142;11.618;2023-02-26T05:33:07;3.50;55.20
2749;DHT22;1382;52.142;11.618;2023-02-26T05:35:34;3.70;55.30
2749;DHT22;1382;52.142;11.618;2023-02-26T05:38:00;3.70;55.30
2749;DHT22;1382;52.142;11.618;2023-02-26T05:40:27;3.50;55.00
2749;DHT22;1382;52.142;11.618;2023-02-26T05:42:54;3.70;55.20
2749;DHT22;1382;52.142;11.618;2023-02-26T05:45:20;3.60;55.10
2749;DHT22;1382;52.142;11.618;2023-02-26T05:47:49;3.50;55.10
2749;DHT22;1382;52.142;11.618;2023-02-26T05:50:15;3.50;54.90
2749;DHT22;1382;52.142;11.618;2023-02-26T05:52:42;3.50;54.90
2749;DHT22;1382;52.142;11.618;2023-02-26T05:55:09;3.50;54.90
2749;DHT22;1382;52.142;11.618;2023-02-26T05:57:36;3.50;54.90
2749;DHT22;1382;52.142;11.618;2023-02-26T06:00:04;3.50;54.70
2749;DHT22;1382;52.142;11.618;2023-02-26T06:02:31;3.60;54.60
2749;DHT22;1382;52.142;11.618;2023-02-26T06:04:59;3.60;54.40
2749;DHT22;1382;52.142;11.618;2023-02-26T06:07:26;3.60;54.40
2749;DHT22;1382;52.142;11.618;2023-02-26T06:09:53;3.50;54.40
2749;DHT22;1382;52.142;11.618;2023-02-26T06:12:19;3.60;54.50
2749;DHT22;1382;52.142;11.618;2023-02-26T06:14:46;3.60;54.40
2749;DHT22;1382;52.142;11.618;2023-02-26T06:17:13;3.60;54.30
2749;DHT22;1382;52.142;11.618;2023-02-26T06:19:40;3.60;54.10
2749;DHT22;1382;52.142;11.618;2023-02-26T06:22:08;3.60;54.00
2749;DHT22;1382;52.142;11.618;2023-02-26T06:24:34;3.60;53.90
2749;DHT22;1382;52.142;11.618;2023-02-26T06:27:01;3.60;53.90
2749;DHT22;1382;52.142;11.618;2023-02-26T06:29:28;3.60;53.80
2749;DHT22;1382;52.142;11.618;2023-02-26T06:31:55;3.60;53.70
2749;DHT22;1382;52.142;11.618;2023-02-26T06:34:21;3.60;53.50
2749;DHT22;1382;52.142;11.618;2023-02-26T06:36:48;3.50;53.60
2749;DHT22;1382;52.142;11.618;2023-02-26T06:39:16;3.50;53.70
2749;DHT22;1382;52.142;11.618;2023-02-26T06:41:43;3.50;53.60
2749;DHT22;1382;52.142;11.618;2023-02-26T06:44:10;3.50;53.70
2749;DHT22;1382;52.142;11.618;2023-02-26T06:46:37;3.70;54.00
2749;DHT22;1382;52.142;11.618;2023-02-26T06:49:04;3.60;53.70
2749;DHT22;1382;52.142;11.618;2023-02-26T06:51:32;3.60;53.60
2749;DHT22;1382;52.142;11.618;2023-02-26T06:53:58;3.60;53.70
2749;DHT22;1382;52.142;11.618;2023-02-26T06:56:27;3.60;53.50
2749;DHT22;1382;52.142;11.618;2023-02-26T06:58:54;3.60;53.40
2749;DHT22;1382;52.142;11.618;2023-02-26T07:01:21;3.50;53.30
2749;DHT22;1382;52.142;11.618;2023-02-26T07:03:47;3.50;53.30
2749;DHT22;1382;52.142;11.618;2023-02-26T07:06:14;3.50;53.30
2749;DHT22;1382;52.142;11.618;2023-02-26T07:08:53;3.50;53.30
2749;DHT22;1382;52.142;11.618;2023-02-26T07:11:20;3.50;53.40
2749;DHT22;1382;52.142;11.618;2023-02-26T07:13:48;3.50;53.40
2749;DHT22;1382;52.142;11.618;2023-02-26T07:16:15;3.60;53.40
2749;DHT22;1382;52.142;11.618;2023-02-26T07:18:42;3.50;53.40
2749;DHT22;1382;52.142;11.618;2023-02-26T07:21:09;3.50;53.20
2749;DHT22;1382;52.142;11.618;2023-02-26T07:23:35;3.40;53.20
2749;DHT22;1382;52.142;11.618;2023-02-26T07:26:03;3.40;53.60
2749;DHT22;1382;52.142;11.618;2023-02-26T07:28:29;3.50;53.70
2749;DHT22;1382;52.142;11.618;2023-02-26T07:30:57;3.50;53.70
2749;DHT22;1382;52.142;11.618;2023-02-26T07:33:24;3.50;53.60
2749;DHT22;1382;52.142;11.618;2023-02-26T07:35:51;3.50;53.70
2749;DHT22;1382;52.142;11.618;2023-02-26T07:38:18;3.60;53.90
2749;DHT22;1382;52.142;11.618;2023-02-26T07:40:45;3.60;53.90
2749;DHT22;1382;52.142;11.618;2023-02-26T07:43:12;3.60;53.90
2749;DHT22;1382;52.142;11.618;2023-02-26T07:45:39;3.60;53.70
2749;DHT22;1382;52.142;11.618;2023-02-26T07:48:07;3.80;53.70
2749;DHT22;1382;52.142;11.618;2023-02-26T07:50:33;3.60;52.90
2749;DHT22;1382;52.142;11.618;2023-02-26T07:53:00;3.70;52.60
2749;DHT22;1382;52.142;11.618;2023-02-26T07:55:27;3.60;52.60
2749;DHT22;1382;52.142;11.618;2023-02-26T07:57:54;3.60;53.00
2749;DHT22;1382;52.142;11.618;2023-02-26T08:00:21;3.70;53.30
2749;DHT22;1382;52.142;11.618;2023-02-26T08:02:48;3.70;53.00
2749;DHT22;1382;52.142;11.618;2023-02-26T08:05:16;3.70;52.90
2749;DHT22;1382;52.142;11.618;2023-02-26T08:07:42;3.80;53.20
2749;DHT22;1382;52.142;11.618;2023-02-26T08:10:10;3.80;52.90
2749;DHT22;1382;52.142;11.618;2023-02-26T08:12:37;3.90;53.30
2749;DHT22;1382;52.142;11.618;2023-02-26T08:15:05;3.90;52.20
2749;DHT22;1382;52.142;11.618;2023-02-26T08:17:32;3.90;53.70
2749;DHT22;1382;52.142;11.618;2023-02-26T08:19:59;4.00;53.60
2749;DHT22;1382;52.142;11.618;2023-02-26T08:22:27;4.10;53.40
2749;DHT22;1382;52.142;11.618;2023-02-26T08:24:53;4.30;53.50
2749;DHT22;1382;52.142;11.618;2023-02-26T08:27:20;4.40;52.90
2749;DHT22;1382;52.142;11.618;2023-02-26T08:29:47;4.30;52.40
2749;DHT22;1382;52.142;11.618;2023-02-26T08:32:14;4.30;53.50
2749;DHT22;1382;52.142;11.618;2023-02-26T08:34:41;4.40;53.60
2749;DHT22;1382;52.142;11.618;2023-02-26T08:37:08;4.50;52.30
2749;DHT22;1382;52.142;11.618;2023-02-26T08:39:36;4.50;53.00
2749;DHT22;1382;52.142;11.618;2023-02-26T08:42:03;4.60;52.40
2749;DHT22;1382;52.142;11.618;2023-02-26T08:44:30;4.60;52.60
2749;DHT22;1382;52.142;11.618;2023-02-26T08:46:56;4.70;51.60
2749;DHT22;1382;52.142;11.618;2023-02-26T08:49:23;4.70;50.60
2749;DHT22;1382;52.142;11.618;2023-02-26T08:51:50;4.70;50.20
2749;DHT22;1382;52.142;11.618;2023-02-26T08:54:17;4.70;51.30
2749;DHT22;1382;52.142;11.618;2023-02-26T08:56:45;4.80;53.10
2749;DHT22;1382;52.142;11.618;2023-02-26T08:59:11;4.90;52.40
2749;DHT22;1382;52.142;11.618;2023-02-26T09:01:38;4.90;54.40
2749;DHT22;1382;52.142;11.618;2023-02-26T09:04:05;5.00;55.40
2749;DHT22;1382;52.142;11.618;2023-02-26T09:06:31;5.10;53.30
2749;DHT22;1382;52.142;11.618;2023-02-26T09:08:58;5.20;52.70
2749;DHT22;1382;52.142;11.618;2023-02-26T09:11:25;5.30;53.50
2749;DHT22;1382;52.142;11.618;2023-02-26T09:13:53;5.50;52.90
2749;DHT22;1382;52.142;11.618;2023-02-26T09:16:20;5.30;51.80
2749;DHT22;1382;52.142;11.618;2023-02-26T09:18:47;5.50;55.40
2749;DHT22;1382;52.142;11.618;2023-02-26T09:21:14;5.60;52.20
2749;DHT22;1382;52.142;11.618;2023-02-26T09:23:40;5.70;51.00
2749;DHT22;1382;52.142;11.618;2023-02-26T09:26:07;5.70;49.60
2749;DHT22;1382;52.142;11.618;2023-02-26T09:28:34;5.70;50.40
2749;DHT22;1382;52.142;11.618;2023-02-26T09:31:02;5.80;51.90
2749;DHT22;1382;52.142;11.618;2023-02-26T09:33:29;5.90;51.60
2749;DHT22;1382;52.142;11.618;2023-02-26T09:35:56;5.90;51.60
2749;DHT22;1382;52.142;11.618;2023-02-26T09:38:22;6.00;50.00
2749;DHT22;1382;52.142;11.618;2023-02-26T09:40:51;6.10;50.20
2749;DHT22;1382;52.142;11.618;2023-02-26T09:46:24;6.20;49.60
2749;DHT22;1382;52.142;11.618;2023-02-26T09:49:02;6.20;52.20
2749;DHT22;1382;52.142;11.618;2023-02-26T09:51:32;6.30;51.20
2749;DHT22;1382;52.142;11.618;2023-02-26T09:54:01;6.30;50.00
2749;DHT22;1382;52.142;11.618;2023-02-26T09:56:33;6.40;49.60
2749;DHT22;1382;52.142;11.618;2023-02-26T09:59:01;6.40;49.50
2749;DHT22;1382;52.142;11.618;2023-02-26T10:01:33;6.50;49.20
2749;DHT22;1382;52.142;11.618;2023-02-26T10:04:12;6.50;48.90
2749;DHT22;1382;52.142;11.618;2023-02-26T10:06:54;6.50;46.90
2749;DHT22;1382;52.142;11.618;2023-02-26T10:09:32;6.50;47.60
2749;DHT22;1382;52.142;11.618;2023-02-26T10:12:06;6.50;48.10
2749;DHT22;1382;52.142;11.618;2023-02-26T10:14:37;6.50;49.60
2749;DHT22;1382;52.142;11.618;2023-02-26T10:17:16;6.60;47.80
2749;DHT22;1382;52.142;11.618;2023-02-26T10:19:47;6.70;49.40
2749;DHT22;1382;52.142;11.618;2023-02-26T10:22:20;6.70;52.10
2749;DHT22;1382;52.142;11.618;2023-02-26T10:24:53;6.80;51.50
2749;DHT22;1382;52.142;11.618;2023-02-26T10:27:34;6.80;48.70
2749;DHT22;1382;52.142;11.618;2023-02-26T10:30:05;6.90;51.60
2749;DHT22;1382;52.142;11.618;2023-02-26T10:32:37;7.00;54.10
2749;DHT22;1382;52.142;11.618;2023-02-26T10:35:09;7.10;51.10
2749;DHT22;1382;52.142;11.618;2023-02-26T10:37:44;7.20;55.00
2749;DHT22;1382;52.142;11.618;2023-02-26T10:40:15;7.20;53.80
2749;DHT22;1382;52.142;11.618;2023-02-26T10:42:45;7.40;56.00
2749;DHT22;1382;52.142;11.618;2023-02-26T10:45:24;7.50;57.00
2749;DHT22;1382;52.142;11.618;2023-02-26T10:48:03;7.60;53.10
2749;DHT22;1382;52.142;11.618;2023-02-26T10:50:32;7.70;51.20
2749;DHT22;1382;52.142;11.618;2023-02-26T10:53:00;7.70;56.30
2749;DHT22;1382;52.142;11.618;2023-02-26T10:55:38;8.00;57.70
2749;DHT22;1382;52.142;11.618;2023-02-26T10:58:11;7.90;57.90
2749;DHT22;1382;52.142;11.618;2023-02-26T11:00:40;8.10;58.00
2749;DHT22;1382;52.142;11.618;2023-02-26T11:03:14;8.10;52.10
2749;DHT22;1382;52.142;11.618;2023-02-26T11:05:42;8.10;47.40
2749;DHT22;1382;52.142;11.618;2023-02-26T11:08:14;8.10;50.30
2749;DHT22;1382;52.142;11.618;2023-02-26T11:10:47;8.20;49.20
2749;DHT22;1382;52.142;11.618;2023-02-26T11:13:14;8.20;47.60
2749;DHT22;1382;52.142;11.618;2023-02-26T11:15:41;8.30;47.30
2749;DHT22;1382;52.142;11.618;2023-02-26T11:18:14;8.30;50.90
2749;DHT22;1382;52.142;11.618;2023-02-26T11:20:43;8.40;49.30
2749;DHT22;1382;52.142;11.618;2023-02-26T11:23:12;8.50;54.20
2749;DHT22;1382;52.142;11.618;2023-02-26T11:25:40;8.60;51.20
2749;DHT22;1382;52.142;11.618;2023-02-26T11:28:20;8.60;46.60
2749;DHT22;1382;52.142;11.618;2023-02-26T11:30:47;8.60;49.00
2749;DHT22;1382;52.142;11.618;2023-02-26T11:33:19;8.70;44.90
2749;DHT22;1382;52.142;11.618;2023-02-26T11:35:47;8.70;47.20
2749;DHT22;1382;52.142;11.618;2023-02-26T11:38:19;8.70;52.80
2749;DHT22;1382;52.142;11.618;2023-02-26T11:40:49;8.80;51.20
2749;DHT22;1382;52.142;11.618;2023-02-26T11:43:19;8.90;46.40
2749;DHT22;1382;52.142;11.618;2023-02-26T11:45:50;9.00;47.30
2749;DHT22;1382;52.142;11.618;2023-02-26T11:48:22;9.00;45.00
2749;DHT22;1382;52.142;11.618;2023-02-26T11:50:54;9.00;45.00
2749;DHT22;1382;52.142;11.618;2023-02-26T11:53:25;9.00;50.80
2749;DHT22;1382;52.142;11.618;2023-02-26T11:55:57;9.10;47.50
2749;DHT22;1382;52.142;11.618;2023-02-26T11:58:24;9.10;45.60
2749;DHT22;1382;52.142;11.618;2023-02-26T12:00:57;9.20;45.40
2749;DHT22;1382;52.142;11.618;2023-02-26T12:03:28;9.20;43.60
2749;DHT22;1382;52.142;11.618;2023-02-26T12:05:57;9.20;47.70
2749;DHT22;1382;52.142;11.618;2023-02-26T12:08:27;9.30;48.00
2749;DHT22;1382;52.142;11.618;2023-02-26T12:11:11;9.40;52.70
2749;DHT22;1382;52.142;11.618;2023-02-26T12:13:44;9.50;51.50
2749;DHT22;1382;52.142;11.618;2023-02-26T12:16:17;9.60;55.50
2749;DHT22;1382;52.142;11.618;2023-02-26T12:18:54;9.70;50.90
2749;DHT22;1382;52.142;11.618;2023-02-26T12:21:37;9.80;47.50
2749;DHT22;1382;52.142;11.618;2023-02-26T12:24:35;9.90;54.80
2749;DHT22;1382;52.142;11.618;2023-02-26T12:27:12;10.00;52.00
2749;DHT22;1382;52.142;11.618;2023-02-26T12:30:00;10.00;45.70
2749;DHT22;1382;52.142;11.618;2023-02-26T12:32:47;10.00;49.30
2749;DHT22;1382;52.142;11.618;2023-02-26T12:35:43;10.10;53.40
2749;DHT22;1382;52.142;11.618;2023-02-26T12:38:20;10.20;48.00
2749;DHT22;1382;52.142;11.618;2023-02-26T12:41:16;10.20;51.70
2749;DHT22;1382;52.142;11.618;2023-02-26T12:43:46;10.50;53.50
2749;DHT22;1382;52.142;11.618;2023-02-26T12:49:48;10.40;46.20
2749;DHT22;1382;52.142;11.618;2023-02-26T12:52:36;10.40;50.20
2749;DHT22;1382;52.142;11.618;2023-02-26T12:55:14;10.40;46.90
2749;DHT22;1382;52.142;11.618;2023-02-26T12:58:06;10.40;47.20
2749;DHT22;1382;52.142;11.618;2023-02-26T13:00:49;10.50;50.40
2749;DHT22;1382;52.142;11.618;2023-02-26T13:03:40;10.50;44.50
2749;DHT22;1382;52.142;11.618;2023-02-26T13:06:41;10.50;46.70
2749;DHT22;1382;52.142;11.618;2023-02-26T13:09:22;10.50;47.30
2749;DHT22;1382;52.142;11.618;2023-02-26T13:11:58;10.50;47.90
2749;DHT22;1382;52.142;11.618;2023-02-26T13:14:35;10.50;49.20
2749;DHT22;1382;52.142;11.618;2023-02-26T13:17:09;10.50;41.40
2749;DHT22;1382;52.142;11.618;2023-02-26T13:19:41;10.40;45.00
2749;DHT22;1382;52.142;11.618;2023-02-26T13:22:16;10.40;49.50
2749;DHT22;1382;52.142;11.618;2023-02-26T13:24:50;10.50;47.50
2749;DHT22;1382;52.142;11.618;2023-02-26T13:27:21;10.60;49.10
2749;DHT22;1382;52.142;11.618;2023-02-26T13:29:54;10.60;49.40
2749;DHT22;1382;52.142;11.618;2023-02-26T13:32:25;10.70;49.90
2749;DHT22;1382;52.142;11.618;2023-02-26T13:34:55;10.70;48.70
2749;DHT22;1382;52.142;11.618;2023-02-26T13:37:25;10.90;48.40
2749;DHT22;1382;52.142;11.618;2023-02-26T13:40:03;10.80;47.90
2749;DHT22;1382;52.142;11.618;2023-02-26T13:42:40;10.90;48.50
2749;DHT22;1382;52.142;11.618;2023-02-26T13:45:22;10.90;48.80
2749;DHT22;1382;52.142;11.618;2023-02-26T13:47:58;10.90;46.00
2749;DHT22;1382;52.142;11.618;2023-02-26T13:50:36;10.90;43.40
2749;DHT22;1382;52.142;11.618;2023-02-26T13:56:15;11.00;47.50
2749;DHT22;1382;52.142;11.618;2023-02-26T13:58:47;10.90;43.10
2749;DHT22;1382;52.142;11.618;2023-02-26T14:01:17;10.90;46.80
2749;DHT22;1382;52.142;11.618;2023-02-26T14:03:47;10.90;47.50
2749;DHT22;1382;52.142;11.618;2023-02-26T14:06:24;10.90;42.30
2749;DHT22;1382;52.142;11.618;2023-02-26T14:08:53;10.90;39.30
2749;DHT22;1382;52.142;11.618;2023-02-26T14:11:57;10.80;45.10
2749;DHT22;1382;52.142;11.618;2023-02-26T14:14:35;10.90;46.30
2749;DHT22;1382;52.142;11.618;2023-02-26T14:17:27;10.80;47.40
2749;DHT22;1382;52.142;11.618;2023-02-26T14:20:21;10.80;45.70
2749;DHT22;1382;52.142;11.618;2023-02-26T14:22:58;10.80;41.50
2749;DHT22;1382;52.142;11.618;2023-02-26T14:25:37;10.70;45.20
2749;DHT22;1382;52.142;11.618;2023-02-26T14:28:31;10.70;44.50
2749;DHT22;1382;52.142;11.618;2023-02-26T14:31:07;10.70;46.10
2749;DHT22;1382;52.142;11.618;2023-02-26T14:33:41;10.70;46.20
2749;DHT22;1382;52.142;11.618;2023-02-26T14:36:16;10.60;46.60
2749;DHT22;1382;52.142;11.618;2023-02-26T14:38:44;10.60;43.00
2749;DHT22;1382;52.142;11.618;2023-02-26T14:41:23;10.60;46.20
2749;DHT22;1382;52.142;11.618;2023-02-26T14:43:59;10.60;46.00
2749;DHT22;1382;52.142;11.618;2023-02-26T14:46:26;10.60;45.80
2749;DHT22;1382;52.142;11.618;2023-02-26T14:48:53;10.60;44.90
2749;DHT22;1382;52.142;11.618;2023-02-26T14:51:26;10.60;45.20
2749;DHT22;1382;52.142;11.618;2023-02-26T14:54:08;10.50;46.00
2749;DHT22;1382;52.142;11.618;2023-02-26T14:56:49;10.50;45.20
2749;DHT22;1382;52.142;11.618;2023-02-26T14:59:42;10.50;45.20
2749;DHT22;1382;52.142;11.618;2023-02-26T15:02:24;10.50;45.60
2749;DHT22;1382;52.142;11.618;2023-02-26T15:05:17;10.50;46.60
2749;DHT22;1382;52.142;11.618;2023-02-26T15:08:12;10.40;43.50
2749;DHT22;1382;52.142;11.618;2023-02-26T15:10:59;10.40;45.50
2749;DHT22;1382;52.142;11.618;2023-02-26T15:13:39;10.30;45.80
2749;DHT22;1382;52.142;11.618;2023-02-26T15:16:17;10.30;46.40
2749;DHT22;1382;52.142;11.618;2023-02-26T15:18:58;10.20;46.40
2749;DHT22;1382;52.142;11.618;2023-02-26T15:21:32;10.20;46.40
2749;DHT22;1382;52.142;11.618;2023-02-26T15:24:03;10.10;46.50
2749;DHT22;1382;52.142;11.618;2023-02-26T15:26:33;10.10;45.80
2749;DHT22;1382;52.142;11.618;2023-02-26T15:29:04;10.00;47.00
2749;DHT22;1382;52.142;11.618;2023-02-26T15:31:36;10.00;47.10
2749;DHT22;1382;52.142;11.618;2023-02-26T15:34:03;10.00;47.00
2749;DHT22;1382;52.142;11.618;2023-02-26T15:36:30;9.90;46.90
2749;DHT22;1382;52.142;11.618;2023-02-26T15:38:59;9.90;45.70
2749;DHT22;1382;52.142;11.618;2023-02-26T15:41:28;9.90;48.20
2749;DHT22;1382;52.142;11.618;2023-02-26T15:43:58;9.90;48.40
2749;DHT22;1382;52.142;11.618;2023-02-26T15:46:28;9.90;47.60
2749;DHT22;1382;52.142;11.618;2023-02-26T15:49:00;9.80;48.50
2749;DHT22;1382;52.142;11.618;2023-02-26T15:51:28;9.80;48.20
2749;DHT22;1382;52.142;11.618;2023-02-26T15:53:54;9.80;45.90
2749;DHT22;1382;52.142;11.618;2023-02-26T15:56:23;9.80;48.10
2749;DHT22;1382;52.142;11.618;2023-02-26T15:58:54;9.70;48.40
2749;DHT22;1382;52.142;11.618;2023-02-26T16:01:23;9.70;48.90
2749;DHT22;1382;52.142;11.618;2023-02-26T16:03:52;9.70;48.40
2749;DHT22;1382;52.142;11.618;2023-02-26T16:06:24;9.70;48.30
2749;DHT22;1382;52.142;11.618;2023-02-26T16:08:51;9.60;48.00
2749;DHT22;1382;52.142;11.618;2023-02-26T16:11:19;9.60;48.80
2749;DHT22;1382;52.142;11.618;2023-02-26T16:13:49;9.60;47.90
2749;DHT22;1382;52.142;11.618;2023-02-26T16:16:21;9.50;46.90
2749;DHT22;1382;52.142;11.618;2023-02-26T16:18:50;9.50;46.00
2749;DHT22;1382;52.142;11.618;2023-02-26T16:21:25;9.50;46.70
2749;DHT22;1382;52.142;11.618;2023-02-26T16:23:54;9.50;46.20
2749;DHT22;1382;52.142;11.618;2023-02-26T16:26:26;9.40;47.10
2749;DHT22;1382;52.142;11.618;2023-02-26T16:28:57;9.40;47.70
2749;DHT22;1382;52.142;11.618;2023-02-26T16:31:26;9.40;47.60
2749;DHT22;1382;52.142;11.618;2023-02-26T16:33:56;9.30;47.80
2749;DHT22;1382;52.142;11.618;2023-02-26T16:36:26;9.30;47.90
2749;DHT22;1382;52.142;11.618;2023-02-26T16:39:01;9.30;47.00
2749;DHT22;1382;52.142;11.618;2023-02-26T16:41:30;9.20;44.90